Oosterdam — PBKH — position and weather

sailwx.info

Track history (hours):
 
Tides and Currents Weather Stations Pressure Air Temp Water Temp Dewpoint Dewpoint Depression Visibility Wind Speed Wind Dir Waves Ship Positions

Oosterdam

Operator: Holland America Line

Last reported at 2016-May-26 22:34 UTC. Time now 2016-May-27 00:26 UTC.
Position N 36°19' W 006°26'.

Type: Passenger vessel. MMSI: 245417000.

Date/timePositionNaut miles runAvg speedWind from/ knotsBaromVisibWave heightAir tempDewpointWater temp
2016-May-26 22:34N 36°19' W 006°26'9 0.5
2016-May-26 03:00N 36°12' W 006°18'3513.1 290 / 151010.010.8 20.015.419.6
2016-May-26 00:19N 35°58' W 005°38'1114.3
2016-May-25 23:33N 36°01' W 005°25'22214.7
2016-May-25 08:31N 37°13' W 001°04'1616.2
2016-May-25 07:33N 37°24' W 000°49'1615.8
2016-May-25 06:33N 37°34' W 000°34'1616.2
2016-May-25 05:33N 37°47' W 000°23'1716.8
2016-May-25 04:33N 38°01' W 000°11'1716.6
2016-May-25 03:33N 38°16' W 000°00'2 4.4
2016-May-25 03:00N 38°18' E 000°00'2026.4 230 / 111010.010.8 20.017.620.0
2016-May-25 02:15N 38°34' E 000°15'6316.9
2016-May-24 22:32N 39°28' E 000°55'1716.6
2016-May-24 21:31N 39°43' E 001°05'1616.7
2016-May-24 20:33N 39°57' E 001°15'1717.0
2016-May-24 19:33N 40°12' E 001°25'1717.0
2016-May-24 18:33N 40°27' E 001°36'1716.9
2016-May-24 17:33N 40°42' E 001°46'1716.5
2016-May-24 16:33N 40°57' E 001°57'1514.9
2016-May-24 15:31N 41°10' E 002°06'12 5.8
2016-May-24 13:31N 41°21' E 002°11'0 0.0
2016-May-23 18:21N 41°21' E 002°11'0 0.0
2016-May-23 17:21N 41°21' E 002°11'0 0.0
2016-May-23 16:33N 41°21' E 002°11'0 0.0
2016-May-23 15:27N 41°21' E 002°11'0 0.0
2016-May-23 14:33N 41°21' E 002°11'137 3.9
2016-May-22 03:00N 43°12' E 004°00'814.0 140 / 231013.010.8 0.516.414.616.0
2016-May-22 02:25N 43°13' E 004°11'27 9.5
2016-May-21 23:33N 43°13' E 004°48'10 9.6
2016-May-21 22:33N 43°15' E 005°01'9 8.5
2016-May-21 21:33N 43°18' E 005°12'6 0.9
2016-May-21 14:28N 43°21' E 005°20'0 0.0
2016-May-21 13:16N 43°21' E 005°20'0 0.0
2016-May-21 11:31N 43°21' E 005°20'0 0.0
2016-May-21 10:28N 43°21' E 005°20'0 0.0
2016-May-21 08:10N 43°21' E 005°20'0 0.0
2016-May-21 07:31N 43°21' E 005°20'0 0.0
2016-May-21 06:07N 43°21' E 005°20'1 1.1
2016-May-21 05:33N 43°21' E 005°19'1110.6
2016-May-21 04:34N 43°12' E 005°11'1915.2
2016-May-21 03:20N 42°57' E 004°55'410.6
2016-May-21 03:00N 42°54' E 004°54'920.1 290 / 61017.010.8 0.516.314.315.7
2016-May-21 02:33N 42°48' E 004°45'1615.5
2016-May-21 01:33N 42°36' E 004°32'1717.4
2016-May-21 00:33N 42°22' E 004°17'1918.9
2016-May-20 23:34N 42°07' E 004°02'1918.7
2016-May-20 22:33N 41°52' E 003°47'1918.7
2016-May-20 21:33N 41°38' E 003°30'1918.6
2016-May-20 20:33N 41°24' E 003°15'1918.5
2016-May-20 19:33N 41°09' E 002°60'1616.3
2016-May-20 18:33N 40°56' E 002°46'1717.4
2016-May-20 17:33N 40°43' E 002°32'1717.4
2016-May-20 16:33N 40°29' E 002°18'1716.8
2016-May-20 15:33N 40°16' E 002°04'1717.3
2016-May-20 14:34N 40°02' E 001°50'1717.2
2016-May-20 13:33N 39°49' E 001°36'2017.5
2016-May-20 12:25N 39°33' E 001°20'1618.2
2016-May-20 11:33N 39°21' E 001°08'8717.4
2016-May-20 06:33N 38°11' E 000°01'1717.3
2016-May-20 05:33N 37°57' W 000°11'1817.7
2016-May-20 04:33N 37°42' W 000°24'1323.7
2016-May-20 04:00N 37°30' W 000°30'715.1 050 / 111018.0 5.4 0.520.118.018.9
2016-May-20 03:33N 37°29' W 000°38'5 9.8
2016-May-20 03:00N 37°24' W 000°42'1625.0 050 / 91018.0 5.4 0.520.117.918.8
2016-May-20 02:22N 37°14' W 000°57'22017.0
2016-May-19 13:28N 35°56' W 005°13'5 5.7
2016-May-19 12:33N 35°54' W 005°19'0 0.0
2016-May-19 11:33N 35°54' W 005°19'0 0.0
2016-May-19 10:33N 35°54' W 005°19'0 0.0
2016-May-19 09:33N 35°54' W 005°19'0 0.0
2016-May-19 08:33N 35°54' W 005°19'0 0.1
2016-May-19 07:33N 35°54' W 005°19'20 4.4
2016-May-19 03:00N 35°54' W 004°54'134 5.6 280 / 251014.010.8 0.517.112.017.6
2016-May-18 03:00N 36°24' W 002°12'6216.3 070 / 251013.010.8 0.517.113.416.6
2016-May-17 23:12N 36°58' W 001°08'1217.7
2016-May-17 22:33N 37°04' W 000°55'1717.4
2016-May-17 21:33N 37°13' W 000°37'1717.3
2016-May-17 20:33N 37°22' W 000°18'1717.1
2016-May-17 19:33N 37°32' W 000°01'1717.2
2016-May-17 18:33N 37°41' E 000°18'1717.6
2016-May-17 17:33N 37°51' E 000°36'1717.1
2016-May-17 16:33N 37°60' E 000°55'3615.6
2016-May-17 14:15N 38°19' E 001°33'1317.1
2016-May-17 13:28N 38°26' E 001°48'1717.1
2016-May-17 12:29N 38°35' E 002°06'1817.0
2016-May-17 11:26N 38°45' E 002°25'1517.1
2016-May-17 10:33N 38°53' E 002°42'1717.0
2016-May-17 09:33N 39°02' E 003°00'1717.3
2016-May-17 08:33N 39°12' E 003°19'1817.2
2016-May-17 07:30N 39°21' E 003°38'4116.2
2016-May-17 05:00N 39°42' E 004°24'3316.5 310 / 81018.010.8 0.517.114.617.8
2016-May-17 03:00N 40°00' E 005°00'   250 / 161018.010.8 17.114.217.6
Track history (hours):
 
Tides and Currents Weather Stations Pressure Air Temp Water Temp Dewpoint Dewpoint Depression Visibility Wind Speed Wind Dir Waves Ship Positions

Oosterdam

Operator: Holland America Line

Last reported at 2016-May-26 22:34 UTC. Time now 2016-May-27 00:26 UTC.
Position N 36°19' W 006°26'.

Type: Passenger vessel. MMSI: 245417000.

Date/timePositionNaut miles runAvg speedWind from/ knotsBaromVisibWave heightAir tempDewpointWater temp
2016-May-26 22:34N 36°19' W 006°26'9 0.5
2016-May-26 03:00N 36°12' W 006°18'3513.1 290 / 151010.010.8 20.015.419.6
2016-May-26 00:19N 35°58' W 005°38'1114.3
2016-May-25 23:33N 36°01' W 005°25'22214.7
2016-May-25 08:31N 37°13' W 001°04'1616.2
2016-May-25 07:33N 37°24' W 000°49'1615.8
2016-May-25 06:33N 37°34' W 000°34'1616.2
2016-May-25 05:33N 37°47' W 000°23'1716.8
2016-May-25 04:33N 38°01' W 000°11'1716.6
2016-May-25 03:33N 38°16' W 000°00'2 4.4
2016-May-25 03:00N 38°18' E 000°00'2026.4 230 / 111010.010.8 20.017.620.0
2016-May-25 02:15N 38°34' E 000°15'6316.9
2016-May-24 22:32N 39°28' E 000°55'1716.6
2016-May-24 21:31N 39°43' E 001°05'1616.7
2016-May-24 20:33N 39°57' E 001°15'1717.0
2016-May-24 19:33N 40°12' E 001°25'1717.0
2016-May-24 18:33N 40°27' E 001°36'1716.9
2016-May-24 17:33N 40°42' E 001°46'1716.5
2016-May-24 16:33N 40°57' E 001°57'1514.9
2016-May-24 15:31N 41°10' E 002°06'12 5.8
2016-May-24 13:31N 41°21' E 002°11'0 0.0
2016-May-23 18:21N 41°21' E 002°11'0 0.0
2016-May-23 17:21N 41°21' E 002°11'0 0.0
2016-May-23 16:33N 41°21' E 002°11'0 0.0
2016-May-23 15:27N 41°21' E 002°11'0 0.0
2016-May-23 14:33N 41°21' E 002°11'137 3.9
2016-May-22 03:00N 43°12' E 004°00'814.0 140 / 231013.010.8 0.516.414.616.0
2016-May-22 02:25N 43°13' E 004°11'27 9.5
2016-May-21 23:33N 43°13' E 004°48'10 9.6
2016-May-21 22:33N 43°15' E 005°01'9 8.5
2016-May-21 21:33N 43°18' E 005°12'6 0.9
2016-May-21 14:28N 43°21' E 005°20'0 0.0
2016-May-21 13:16N 43°21' E 005°20'0 0.0
2016-May-21 11:31N 43°21' E 005°20'0 0.0
2016-May-21 10:28N 43°21' E 005°20'0 0.0
2016-May-21 08:10N 43°21' E 005°20'0 0.0
2016-May-21 07:31N 43°21' E 005°20'0 0.0
2016-May-21 06:07N 43°21' E 005°20'1 1.1
2016-May-21 05:33N 43°21' E 005°19'1110.6
2016-May-21 04:34N 43°12' E 005°11'1915.2
2016-May-21 03:20N 42°57' E 004°55'410.6
2016-May-21 03:00N 42°54' E 004°54'920.1 290 / 61017.010.8 0.516.314.315.7
2016-May-21 02:33N 42°48' E 004°45'1615.5
2016-May-21 01:33N 42°36' E 004°32'1717.4
2016-May-21 00:33N 42°22' E 004°17'1918.9
2016-May-20 23:34N 42°07' E 004°02'1918.7
2016-May-20 22:33N 41°52' E 003°47'1918.7
2016-May-20 21:33N 41°38' E 003°30'1918.6
2016-May-20 20:33N 41°24' E 003°15'1918.5
2016-May-20 19:33N 41°09' E 002°60'1616.3
2016-May-20 18:33N 40°56' E 002°46'1717.4
2016-May-20 17:33N 40°43' E 002°32'1717.4
2016-May-20 16:33N 40°29' E 002°18'1716.8
2016-May-20 15:33N 40°16' E 002°04'1717.3
2016-May-20 14:34N 40°02' E 001°50'1717.2
2016-May-20 13:33N 39°49' E 001°36'2017.5
2016-May-20 12:25N 39°33' E 001°20'1618.2
2016-May-20 11:33N 39°21' E 001°08'8717.4
2016-May-20 06:33N 38°11' E 000°01'1717.3
2016-May-20 05:33N 37°57' W 000°11'1817.7
2016-May-20 04:33N 37°42' W 000°24'1323.7
2016-May-20 04:00N 37°30' W 000°30'715.1 050 / 111018.0 5.4 0.520.118.018.9
2016-May-20 03:33N 37°29' W 000°38'5 9.8
2016-May-20 03:00N 37°24' W 000°42'1625.0 050 / 91018.0 5.4 0.520.117.918.8
2016-May-20 02:22N 37°14' W 000°57'22017.0
2016-May-19 13:28N 35°56' W 005°13'5 5.7
2016-May-19 12:33N 35°54' W 005°19'0 0.0
2016-May-19 11:33N 35°54' W 005°19'0 0.0
2016-May-19 10:33N 35°54' W 005°19'0 0.0
2016-May-19 09:33N 35°54' W 005°19'0 0.0
2016-May-19 08:33N 35°54' W 005°19'0 0.1
2016-May-19 07:33N 35°54' W 005°19'20 4.4
2016-May-19 03:00N 35°54' W 004°54'134 5.6 280 / 251014.010.8 0.517.112.017.6
2016-May-18 03:00N 36°24' W 002°12'6216.3 070 / 251013.010.8 0.517.113.416.6
2016-May-17 23:12N 36°58' W 001°08'1217.7
2016-May-17 22:33N 37°04' W 000°55'1717.4
2016-May-17 21:33N 37°13' W 000°37'1717.3
2016-May-17 20:33N 37°22' W 000°18'1717.1
2016-May-17 19:33N 37°32' W 000°01'1717.2
2016-May-17 18:33N 37°41' E 000°18'1717.6
2016-May-17 17:33N 37°51' E 000°36'1717.1
2016-May-17 16:33N 37°60' E 000°55'3615.6
2016-May-17 14:15N 38°19' E 001°33'1317.1
2016-May-17 13:28N 38°26' E 001°48'1717.1
2016-May-17 12:29N 38°35' E 002°06'1817.0
2016-May-17 11:26N 38°45' E 002°25'1517.1
2016-May-17 10:33N 38°53' E 002°42'1717.0
2016-May-17 09:33N 39°02' E 003°00'1717.3
2016-May-17 08:33N 39°12' E 003°19'1817.2
2016-May-17 07:30N 39°21' E 003°38'4116.2
2016-May-17 05:00N 39°42' E 004°24'3316.5 310 / 81018.010.8 0.517.114.617.8
2016-May-17 03:00N 40°00' E 005°00'   250 / 161018.010.8 17.114.217.6

Dump ship's entire track history